Time;durP1;ratioP1;P1;durP2;ratioP2;P2;SDS_P1;SDS_P2;PMS_P1;PMS_P2;Temp;Humidity;BMP_temperature;BMP_pressure;BME280_temperature;BME280_humidity;BME280_pressure;Samples;Min_cycle;Max_cycle;Signal;HPM_P1;HPM_P2
2023/09/17 00:01:18;;;;;;;13.20;8.50;;;;;;;11.94;100.00;101255.63;104746;1270;61188;-64
2023/09/17 00:03:46;;;;;;;14.00;8.80;;;;;;;11.89;100.00;101254.56;104671;1268;73255;-68
2023/09/17 00:06:13;;;;;;;12.00;8.20;;;;;;;11.84;100.00;101255.98;104432;1273;65895;-66
2023/09/17 00:08:40;;;;;;;11.40;8.00;;;;;;;11.81;100.00;101256.19;104443;1268;73367;-66
2023/09/17 00:11:07;;;;;;;10.10;7.70;;;;;;;11.80;100.00;101257.46;104760;1274;61188;-68
2023/09/17 00:13:35;;;;;;;12.40;9.30;;;;;;;11.80;100.00;101255.57;104710;1268;61272;-66
2023/09/17 00:16:02;;;;;;;12.90;8.50;;;;;;;11.80;100.00;101258.31;105156;1268;73690;-68
2023/09/17 00:18:29;;;;;;;12.00;8.10;;;;;;;11.80;100.00;101261.48;104618;1272;65795;-66
2023/09/17 00:20:56;;;;;;;10.00;8.00;;;;;;;11.80;100.00;101261.18;104695;1272;72800;-65
2023/09/17 00:23:24;;;;;;;12.80;8.90;;;;;;;11.78;100.00;101264.48;104672;1273;61883;-65
2023/09/17 00:25:51;;;;;;;10.20;8.50;;;;;;;11.77;100.00;101262.53;104639;1273;61247;-68
2023/09/17 00:28:18;;;;;;;11.30;8.70;;;;;;;11.76;100.00;101261.90;104861;1271;73830;-70
2023/09/17 00:30:45;;;;;;;11.90;9.10;;;;;;;11.77;100.00;101264.65;104429;1273;289180;-69
2023/09/17 00:33:12;;;;;;;9.50;8.30;;;;;;;11.79;100.00;101268.77;104879;1272;71591;-69
2023/09/17 00:35:39;;;;;;;14.90;9.80;;;;;;;11.79;100.00;101266.68;104716;1269;61892;-67
2023/09/17 00:38:06;;;;;;;11.50;9.40;;;;;;;11.78;100.00;101266.03;105211;1268;61202;-67
2023/09/17 00:40:37;;;;;;;12.10;9.20;;;;;;;11.78;100.00;101268.17;104583;1271;75493;-66
2023/09/17 00:43:04;;;;;;;10.90;9.40;;;;;;;11.77;100.00;101267.78;104823;1268;67542;-66
2023/09/17 00:45:31;;;;;;;12.70;9.30;;;;;;;11.72;100.00;101270.02;104760;1273;72491;-66
2023/09/17 00:48:00;;;;;;;15.30;10.10;;;;;;;11.69;100.00;101272.08;105020;1267;61524;-68
2023/09/17 00:50:27;;;;;;;15.50;10.80;;;;;;;11.67;100.00;101273.91;104599;1280;61565;-68
2023/09/17 00:52:55;;;;;;;12.90;10.40;;;;;;;11.67;100.00;101274.60;104711;1270;74116;-67
2023/09/17 00:55:22;;;;;;;17.40;10.80;;;;;;;11.65;100.00;101275.95;104614;1270;66217;-66
2023/09/17 00:57:49;;;;;;;14.70;9.90;;;;;;;11.63;100.00;101276.03;104788;1268;72747;-65
2023/09/17 01:00:20;;;;;;;13.30;9.90;;;;;;;11.60;100.00;101275.48;104797;1268;62553;-67
2023/09/17 01:02:47;;;;;;;11.10;9.20;;;;;;;11.55;100.00;101273.71;104641;1268;61211;-65
2023/09/17 01:05:15;;;;;;;13.40;9.70;;;;;;;11.51;100.00;101279.27;104630;1273;74782;-65
2023/09/17 01:07:42;;;;;;;12.30;9.60;;;;;;;11.45;100.00;101275.91;104751;1268;67198;-64
2023/09/17 01:10:09;;;;;;;15.80;10.20;;;;;;;11.38;100.00;101273.59;104788;1270;71367;-66
2023/09/17 01:12:38;;;;;;;12.50;9.70;;;;;;;11.35;100.00;101275.94;104668;1269;60546;-65
2023/09/17 01:15:09;;;;;;;12.60;9.10;;;;;;;11.31;100.00;101275.48;104780;1272;61253;-65
2023/09/17 01:17:36;;;;;;;12.10;10.10;;;;;;;11.28;100.00;101274.77;104959;1272;74426;-65
2023/09/17 01:20:24;;;;;;;14.30;10.70;;;;;;;11.26;100.00;101270.63;105043;1268;66232;-66
2023/09/17 01:22:55;;;;;;;13.90;10.10;;;;;;;11.24;100.00;101271.73;104905;1268;73004;-67
2023/09/17 01:25:46;;;;;;;16.00;10.20;;;;;;;11.20;100.00;101268.46;104518;1268;61891;-65
2023/09/17 01:28:13;;;;;;;14.00;9.60;;;;;;;11.15;100.00;101270.52;104394;1271;61288;-64
2023/09/17 01:30:41;;;;;;;14.20;10.80;;;;;;;11.11;100.00;101268.33;104709;1269;74727;-65
2023/09/17 01:33:12;;;;;;;14.30;10.20;;;;;;;11.08;100.00;101269.23;104715;1268;67337;-64
2023/09/17 01:35:45;;;;;;;11.80;9.10;;;;;;;11.06;100.00;101269.72;104839;1273;71153;-64
2023/09/17 01:38:13;;;;;;;17.20;11.60;;;;;;;11.07;100.00;101274.55;104668;1268;61274;-64
2023/09/17 01:40:41;;;;;;;13.90;10.10;;;;;;;11.09;100.00;101272.20;104966;1274;61194;-64
2023/09/17 01:43:09;;;;;;;14.10;10.00;;;;;;;11.11;100.00;101270.23;104711;1268;74769;-64
2023/09/17 01:45:36;;;;;;;12.80;9.50;;;;;;;11.14;100.00;101275.16;104567;1272;67479;-64
2023/09/17 01:48:03;;;;;;;13.40;10.40;;;;;;;11.18;100.00;101278.58;103973;1273;73031;-63
2023/09/17 01:50:32;;;;;;;13.90;10.50;;;;;;;11.22;100.00;101280.41;104655;1272;61285;-63
2023/09/17 01:52:59;;;;;;;14.90;11.30;;;;;;;11.26;100.00;101280.48;104728;1273;61195;-63
2023/09/17 01:55:26;;;;;;;15.90;11.30;;;;;;;11.29;100.00;101285.54;104653;1268;74829;-64
2023/09/17 01:57:54;;;;;;;13.40;10.10;;;;;;;11.31;100.00;101285.49;104503;1271;66182;-65
2023/09/17 02:00:24;;;;;;;15.30;10.50;;;;;;;11.32;100.00;101281.42;104697;1273;71475;-64
2023/09/17 02:02:52;;;;;;;16.20;11.90;;;;;;;11.33;100.00;101285.33;104289;1271;61432;-63
2023/09/17 02:05:25;;;;;;;16.90;11.70;;;;;;;11.33;100.00;101285.12;104622;1271;61384;-63
2023/09/17 02:07:52;;;;;;;15.60;11.20;;;;;;;11.35;100.00;101283.90;104786;1274;74802;-64
2023/09/17 02:10:20;;;;;;;13.90;10.60;;;;;;;11.36;100.00;101280.31;104664;1274;66463;-63
2023/09/17 02:12:47;;;;;;;18.30;11.90;;;;;;;11.39;100.00;101280.90;104669;1270;72495;-63
2023/09/17 02:15:15;;;;;;;16.30;11.00;;;;;;;11.41;100.00;101281.20;104616;1271;61259;-64
2023/09/17 02:17:42;;;;;;;15.70;11.30;;;;;;;11.42;100.00;101276.81;104686;1274;61188;-65
2023/09/17 02:20:11;;;;;;;15.60;12.40;;;;;;;11.43;100.00;101277.64;104711;1270;73574;-64
2023/09/17 02:22:38;;;;;;;15.10;12.20;;;;;;;11.44;100.00;101273.86;104618;1270;67587;-64
2023/09/17 02:25:06;;;;;;;17.30;10.90;;;;;;;11.43;100.00;101280.34;104419;1273;72587;-64
2023/09/17 02:27:34;;;;;;;16.10;11.70;;;;;;;11.44;100.00;101281.33;104547;1278;61388;-64
2023/09/17 02:30:01;;;;;;;14.70;10.90;;;;;;;11.44;100.00;101280.84;104671;1270;61284;-66
2023/09/17 02:32:28;;;;;;;17.70;12.00;;;;;;;11.44;100.00;101276.28;104751;1268;74290;-63
2023/09/17 02:34:56;;;;;;;14.80;11.00;;;;;;;11.42;100.00;101273.39;104774;1268;67196;-64
2023/09/17 02:37:23;;;;;;;15.50;11.60;;;;;;;11.40;100.00;101278.45;104727;1270;72774;-64
2023/09/17 02:39:50;;;;;;;15.10;12.00;;;;;;;11.41;100.00;101280.52;104779;1271;61501;-64
2023/09/17 02:42:18;;;;;;;17.70;11.70;;;;;;;11.41;100.00;101287.77;104507;1270;61186;-63
2023/09/17 02:44:45;;;;;;;16.40;11.50;;;;;;;11.43;100.00;101286.12;104611;1267;73551;-63
2023/09/17 02:47:12;;;;;;;19.70;13.20;;;;;;;11.44;100.00;101295.03;104579;1272;65998;-65
2023/09/17 02:49:39;;;;;;;15.50;12.40;;;;;;;11.40;100.00;101297.41;104422;1271;72820;-64
2023/09/17 02:52:06;;;;;;;14.80;12.20;;;;;;;11.34;100.00;101292.00;104546;1268;61259;-66
2023/09/17 02:54:34;;;;;;;21.20;12.80;;;;;;;11.28;100.00;101289.23;104632;1267;61201;-66
2023/09/17 02:57:02;;;;;;;15.90;12.00;;;;;;;11.22;100.00;101293.45;104688;1269;74460;-67
2023/09/17 02:59:29;;;;;;;15.90;12.70;;;;;;;11.17;100.00;101285.95;104748;1267;65011;-66
2023/09/17 03:01:56;;;;;;;16.70;12.90;;;;;;;11.13;100.00;101290.77;104595;1270;71501;-68
2023/09/17 03:04:26;;;;;;;18.30;13.00;;;;;;;11.09;100.00;101294.63;104539;1272;61250;-66
2023/09/17 03:06:53;;;;;;;19.40;13.60;;;;;;;11.06;100.00;101287.33;104757;1270;61300;-65
2023/09/17 03:09:20;;;;;;;17.90;12.40;;;;;;;11.01;100.00;101293.59;104628;1271;74629;-67
2023/09/17 03:11:49;;;;;;;16.10;11.60;;;;;;;10.97;100.00;101294.16;104354;1267;67232;-66
2023/09/17 03:14:16;;;;;;;14.90;11.70;;;;;;;10.93;100.00;101294.26;104515;1268;72640;-68
2023/09/17 03:16:43;;;;;;;16.40;12.80;;;;;;;10.90;100.00;101294.20;104540;1269;61326;-66
2023/09/17 03:19:12;;;;;;;16.20;11.90;;;;;;;10.91;100.00;101295.63;104713;1270;61170;-65
2023/09/17 03:21:40;;;;;;;14.90;12.00;;;;;;;10.97;100.00;101298.67;104548;1270;74619;-65
2023/09/17 03:24:08;;;;;;;16.90;13.00;;;;;;;11.09;100.00;101300.41;105135;1268;67036;-67
2023/09/17 03:26:37;;;;;;;14.70;12.10;;;;;;;11.28;100.00;101301.73;104820;1270;70440;-67
2023/09/17 03:29:05;;;;;;;16.50;12.10;;;;;;;11.55;100.00;101302.38;104533;1273;61485;-67
2023/09/17 03:31:32;;;;;;;14.80;11.70;;;;;;;11.90;100.00;101305.21;104624;1269;61361;-67
2023/09/17 03:34:00;;;;;;;16.50;11.40;;;;;;;12.33;100.00;101309.42;105064;1268;74618;-66
2023/09/17 03:36:27;;;;;;;13.20;11.30;;;;;;;12.78;100.00;101311.23;104549;1270;67024;-66
2023/09/17 03:38:54;;;;;;;13.70;11.00;;;;;;;13.23;100.00;101309.60;104518;1270;72785;-67
2023/09/17 03:41:21;;;;;;;16.50;11.90;;;;;;;13.77;100.00;101311.27;104604;1274;61262;-65
2023/09/17 03:43:49;;;;;;;14.00;10.50;;;;;;;14.37;100.00;101306.56;104716;1271;61253;-68
2023/09/17 03:46:18;;;;;;;14.80;10.70;;;;;;;14.96;100.00;101306.44;104583;1269;73431;-68
2023/09/17 03:48:46;;;;;;;13.70;9.80;;;;;;;15.58;100.00;101306.78;105134;1271;67243;-68
2023/09/17 03:51:13;;;;;;;12.90;10.50;;;;;;;16.24;100.00;101299.34;104546;1272;72997;-67
2023/09/17 03:53:40;;;;;;;13.40;10.60;;;;;;;16.83;100.00;101288.08;104463;1272;61303;-66
2023/09/17 03:56:07;;;;;;;12.10;9.30;;;;;;;17.36;100.00;101274.18;104614;1270;61540;-67
2023/09/17 03:58:34;;;;;;;12.00;10.20;;;;;;;17.86;100.00;101257.48;104764;1272;74603;-68
2023/09/17 04:01:02;;;;;;;12.50;10.20;;;;;;;18.32;100.00;101237.32;104407;1268;66110;-68
2023/09/17 04:03:29;;;;;;;14.10;9.90;;;;;;;18.77;100.00;101226.73;104645;1273;71176;-66
2023/09/17 04:05:57;;;;;;;12.00;10.20;;;;;;;19.27;100.00;101220.10;105007;1273;60054;-68
2023/09/17 04:08:24;;;;;;;12.40;9.70;;;;;;;19.91;100.00;101209.19;105023;1271;61943;-67
2023/09/17 04:10:54;;;;;;;12.30;10.40;;;;;;;20.58;100.00;101196.11;104896;1270;74693;-66
2023/09/17 04:13:21;;;;;;;14.50;10.20;;;;;;;21.25;100.00;101189.11;104726;1271;67212;-67
2023/09/17 04:15:49;;;;;;;12.70;10.00;;;;;;;21.71;100.00;101184.23;105127;1272;71251;-66
2023/09/17 04:18:16;;;;;;;12.00;9.90;;;;;;;22.31;100.00;101181.98;104694;1273;61247;-66
2023/09/17 04:20:43;;;;;;;13.60;10.40;;;;;;;22.98;100.00;101179.45;104802;1268;61362;-66
2023/09/17 04:23:10;;;;;;;10.50;9.50;;;;;;;23.54;100.00;101179.56;104747;1273;73442;-65
2023/09/17 04:25:37;;;;;;;15.20;10.40;;;;;;;24.05;100.00;101176.84;104302;1272;66893;-65
2023/09/17 04:28:05;;;;;;;12.80;10.30;;;;;;;24.66;100.00;101181.17;104511;1274;71469;-66
2023/09/17 04:30:32;;;;;;;10.70;9.60;;;;;;;25.23;100.00;101180.80;104691;1272;61294;-66
2023/09/17 04:33:01;;;;;;;12.70;10.30;;;;;;;25.65;100.00;101180.76;104599;1269;59987;-66
2023/09/17 04:35:29;;;;;;;11.70;9.50;;;;;;;25.94;97.08;101177.78;104772;1267;75033;-67
2023/09/17 04:37:56;;;;;;;10.70;9.60;;;;;;;26.00;91.00;101174.16;104682;1273;66099;-65
2023/09/17 04:40:29;;;;;;;12.00;9.50;;;;;;;26.18;90.65;101173.98;104897;1268;72743;-66
2023/09/17 04:42:58;;;;;;;9.30;8.40;;;;;;;26.55;85.87;101178.05;104889;1273;61415;-67
2023/09/17 04:45:37;;;;;;;11.70;8.70;;;;;;;26.80;81.87;101178.10;104783;1273;61265;-64
2023/09/17 04:48:11;;;;;;;11.00;8.80;;;;;;;27.11;77.07;101182.35;104548;1268;74743;-66
2023/09/17 04:50:42;;;;;;;9.50;8.50;;;;;;;27.45;72.69;101182.27;104660;1269;66134;-67
2023/09/17 04:53:12;;;;;;;10.00;9.00;;;;;;;27.76;67.33;101185.16;104558;1268;73328;-66
2023/09/17 04:55:39;;;;;;;13.80;9.40;;;;;;;27.96;63.55;101185.23;104555;1273;61291;-68
2023/09/17 04:58:07;;;;;;;9.70;8.70;;;;;;;27.92;61.41;101185.63;104284;1270;61249;-65
2023/09/17 05:00:36;;;;;;;10.00;8.70;;;;;;;27.87;61.84;101186.73;104432;1267;74569;-67
2023/09/17 05:03:05;;;;;;;10.20;9.10;;;;;;;27.93;61.14;101190.77;104991;1267;66004;-66
2023/09/17 05:05:33;;;;;;;12.30;9.60;;;;;;;27.96;59.78;101191.34;104426;1273;72560;-66
2023/09/17 05:08:01;;;;;;;10.10;9.10;;;;;;;27.68;59.67;101190.86;104325;1273;61966;-66
2023/09/17 05:10:28;;;;;;;12.70;9.40;;;;;;;27.14;59.47;101190.85;104090;1269;61383;-65
2023/09/17 05:12:56;;;;;;;10.60;9.30;;;;;;;26.41;61.84;101191.33;104286;1272;75190;-66
2023/09/17 05:15:23;;;;;;;11.50;9.60;;;;;;;25.44;68.13;101200.17;104593;1271;67436;-67
2023/09/17 05:17:51;;;;;;;10.10;9.00;;;;;;;24.40;76.87;101205.77;104733;1272;72667;-64
2023/09/17 05:20:21;;;;;;;12.40;10.50;;;;;;;23.43;92.85;101211.73;104592;1268;61346;-65
2023/09/17 05:22:48;;;;;;;10.40;9.30;;;;;;;22.95;100.00;101209.20;104646;1267;60009;-65
2023/09/17 05:25:15;;;;;;;11.50;10.30;;;;;;;22.62;100.00;101209.98;104700;1272;72761;-65
2023/09/17 05:27:43;;;;;;;12.70;10.50;;;;;;;22.14;100.00;101211.97;104677;1273;66106;-66
2023/09/17 05:30:12;;;;;;;12.20;10.90;;;;;;;21.77;100.00;101212.38;104626;1273;72876;-66
2023/09/17 05:32:39;;;;;;;13.00;10.50;;;;;;;21.50;100.00;101215.50;104645;1273;61399;-66
2023/09/17 05:35:07;;;;;;;13.60;11.30;;;;;;;21.37;100.00;101219.10;104816;1281;61240;-67
2023/09/17 05:37:34;;;;;;;14.70;10.70;;;;;;;21.29;100.00;101220.56;104695;1267;74437;-65
2023/09/17 05:40:04;;;;;;;11.90;9.90;;;;;;;21.23;100.00;101219.00;105035;1267;68053;-66
2023/09/17 05:42:32;;;;;;;14.10;9.90;;;;;;;21.20;100.00;101218.77;104475;1272;72070;-66
2023/09/17 05:44:59;;;;;;;11.30;9.20;;;;;;;21.20;100.00;101219.36;104728;1272;61255;-65
2023/09/17 05:47:26;;;;;;;11.70;10.00;;;;;;;21.12;100.00;101226.20;104561;1279;61486;-66
2023/09/17 05:49:55;;;;;;;11.10;9.70;;;;;;;20.95;100.00;101227.70;104571;1273;74536;-65
2023/09/17 05:52:23;;;;;;;12.90;9.40;;;;;;;20.80;100.00;101228.98;104763;1272;67026;-66
2023/09/17 05:54:51;;;;;;;11.20;10.00;;;;;;;20.70;100.00;101233.46;104688;1268;72447;-66
2023/09/17 05:57:18;;;;;;;12.40;9.80;;;;;;;20.62;100.00;101236.10;104924;1274;61376;-68
2023/09/17 05:59:45;;;;;;;11.50;10.20;;;;;;;20.58;100.00;101239.85;104752;1271;61163;-65
2023/09/17 06:02:12;;;;;;;11.30;9.70;;;;;;;20.52;100.00;101239.58;104699;1267;73395;-65
2023/09/17 06:04:40;;;;;;;12.10;9.70;;;;;;;20.50;100.00;101240.05;104678;1273;67238;-65
2023/09/17 06:07:08;;;;;;;10.90;9.40;;;;;;;20.54;100.00;101238.95;104637;1273;71928;-67
2023/09/17 06:09:35;;;;;;;10.90;9.50;;;;;;;20.63;100.00;101238.86;104890;1268;61257;-67
2023/09/17 06:12:03;;;;;;;11.70;8.50;;;;;;;20.95;100.00;101239.96;104661;1267;61243;-65
2023/09/17 06:14:30;;;;;;;11.20;9.30;;;;;;;21.60;100.00;101242.36;104666;1269;74618;-65
2023/09/17 06:16:57;;;;;;;11.10;8.60;;;;;;;22.18;100.00;101245.17;104679;1267;67575;-64
2023/09/17 06:19:29;;;;;;;8.90;8.00;;;;;;;22.57;100.00;101246.77;104691;1272;72747;-64
2023/09/17 06:21:59;;;;;;;9.00;7.40;;;;;;;22.90;100.00;101249.23;104738;1272;61274;-66
2023/09/17 06:24:26;;;;;;;8.60;7.70;;;;;;;23.19;100.00;101250.59;104703;1267;61248;-66
2023/09/17 06:26:53;;;;;;;9.40;8.10;;;;;;;23.45;100.00;101250.02;104692;1267;75228;-65
2023/09/17 06:29:20;;;;;;;8.80;8.00;;;;;;;23.78;100.00;101252.45;104319;1273;67398;-64
2023/09/17 06:31:48;;;;;;;9.30;8.40;;;;;;;24.09;100.00;101253.34;104626;1267;71248;-65
2023/09/17 06:34:15;;;;;;;10.20;8.30;;;;;;;24.37;100.00;101257.11;104573;1272;59854;-65
2023/09/17 06:36:43;;;;;;;8.90;8.00;;;;;;;24.62;100.00;101251.45;104722;1268;61342;-65
2023/09/17 06:39:10;;;;;;;9.90;7.80;;;;;;;24.81;99.28;101256.19;104706;1267;74722;-68
2023/09/17 06:41:37;;;;;;;8.80;8.00;;;;;;;25.04;94.62;101254.08;104381;1273;66246;-67
2023/09/17 06:44:08;;;;;;;8.90;8.00;;;;;;;25.21;90.06;101251.14;104817;1267;72754;-64
2023/09/17 06:46:35;;;;;;;9.90;7.90;;;;;;;25.35;89.45;101249.98;104304;1267;61148;-64
2023/09/17 06:49:02;;;;;;;9.90;7.30;;;;;;;25.54;86.19;101251.44;104596;1267;61236;-66
2023/09/17 06:51:29;;;;;;;9.00;7.30;;;;;;;25.81;84.35;101252.93;104270;1267;74826;-68
2023/09/17 06:53:56;;;;;;;8.20;7.40;;;;;;;25.96;78.07;101255.15;104610;1271;65749;-65
2023/09/17 06:56:26;;;;;;;8.00;7.20;;;;;;;25.92;77.19;101253.31;104928;1267;73418;-67
2023/09/17 06:58:52;;;;;;;8.20;7.40;;;;;;;25.95;80.59;101250.17;104410;1273;61194;-66
2023/09/17 07:01:20;;;;;;;7.50;6.70;;;;;;;26.12;76.02;101249.70;104849;1272;61216;-65
2023/09/17 07:03:47;;;;;;;8.20;7.30;;;;;;;26.19;73.76;101246.09;104208;1267;74730;-65
2023/09/17 07:06:14;;;;;;;7.90;7.10;;;;;;;26.27;75.35;101246.42;104391;1271;66433;-65
2023/09/17 07:08:41;;;;;;;8.80;6.80;;;;;;;26.41;70.84;101245.92;104734;1267;72834;-65
2023/09/17 07:11:08;;;;;;;9.60;7.30;;;;;;;26.40;69.89;101246.67;104240;1267;61338;-64
2023/09/17 07:13:35;;;;;;;8.20;7.40;;;;;;;26.34;72.83;101243.98;104685;1269;60643;-65
2023/09/17 07:16:02;;;;;;;8.20;7.40;;;;;;;26.56;72.38;101242.33;104627;1267;74879;-64
2023/09/17 07:18:31;;;;;;;9.20;6.70;;;;;;;27.00;72.22;101240.21;104720;1271;65672;-64
2023/09/17 07:20:58;;;;;;;8.10;6.50;;;;;;;27.52;70.70;101232.64;104765;1267;71145;-64
2023/09/17 07:23:25;;;;;;;8.50;6.60;;;;;;;27.95;60.87;101232.89;104826;1274;61392;-65
2023/09/17 07:25:52;;;;;;;6.90;6.20;;;;;;;27.94;56.36;101232.66;104857;1267;61262;-63
2023/09/17 07:28:20;;;;;;;8.90;7.10;;;;;;;27.91;57.04;101229.68;104683;1271;73261;-66
2023/09/17 07:30:53;;;;;;;8.80;6.40;;;;;;;27.93;56.51;101228.50;104808;1268;66303;-65
2023/09/17 07:33:20;;;;;;;8.90;6.60;;;;;;;27.94;60.79;101225.59;104852;1269;71390;-65
2023/09/17 07:35:48;;;;;;;8.40;6.60;;;;;;;28.15;60.08;101222.75;104771;1267;61546;-62
2023/09/17 07:38:15;;;;;;;7.90;6.30;;;;;;;28.24;54.91;101219.74;104775;1269;61276;-64
2023/09/17 07:40:43;;;;;;;8.20;6.70;;;;;;;28.04;55.34;101218.58;104728;1267;74680;-64
2023/09/17 07:43:10;;;;;;;7.60;6.90;;;;;;;27.89;57.15;101219.24;104803;1271;66350;-65
2023/09/17 07:45:37;;;;;;;7.50;6.40;;;;;;;27.80;56.31;101217.25;105194;1267;72786;-64
2023/09/17 07:48:05;;;;;;;8.60;6.60;;;;;;;27.70;56.10;101211.27;104644;1273;61381;-64
2023/09/17 07:50:33;;;;;;;6.60;5.90;;;;;;;27.59;56.30;101209.74;104771;1272;61255;-65
2023/09/17 07:53:02;;;;;;;6.90;6.00;;;;;;;27.58;56.88;101207.50;104877;1267;73526;-67
2023/09/17 07:55:29;;;;;;;6.60;5.90;;;;;;;27.60;56.90;101206.15;104739;1267;66948;-63
2023/09/17 07:57:56;;;;;;;8.20;6.10;;;;;;;27.74;57.73;101203.23;104841;1267;72803;-65
2023/09/17 08:00:23;;;;;;;6.80;6.10;;;;;;;27.91;57.76;101203.20;104449;1270;61239;-63
2023/09/17 08:02:51;;;;;;;6.80;6.10;;;;;;;28.00;56.29;101199.84;104699;1267;61828;-65
2023/09/17 08:05:18;;;;;;;6.10;5.40;;;;;;;28.04;57.36;101199.33;104388;1273;75316;-64
2023/09/17 08:07:45;;;;;;;6.20;5.60;;;;;;;28.15;54.75;101194.87;104935;1272;66357;-63
2023/09/17 08:10:12;;;;;;;7.10;5.40;;;;;;;28.50;54.20;101191.21;104020;1272;72730;-64
2023/09/17 08:12:39;;;;;;;5.90;4.90;;;;;;;28.78;48.27;101188.14;104376;1272;61336;-64
2023/09/17 08:15:07;;;;;;;6.70;4.80;;;;;;;28.65;48.62;101188.63;104444;1273;61180;-62
2023/09/17 08:17:34;;;;;;;6.40;5.80;;;;;;;28.47;52.74;101187.70;104713;1267;74249;-64
2023/09/17 08:20:02;;;;;;;5.80;5.20;;;;;;;28.54;51.97;101185.98;104406;1267;67284;-61
2023/09/17 08:22:29;;;;;;;6.50;5.60;;;;;;;28.38;50.43;101187.76;104264;1272;72600;-63
2023/09/17 08:24:56;;;;;;;7.90;4.70;;;;;;;28.25;51.48;101190.08;104311;1267;61297;-63
2023/09/17 08:27:23;;;;;;;5.00;4.20;;;;;;;28.31;50.32;101183.66;104863;1267;61375;-64
2023/09/17 08:29:50;;;;;;;7.00;4.70;;;;;;;28.50;51.88;101186.19;104565;1267;75409;-63
2023/09/17 08:32:18;;;;;;;5.80;5.10;;;;;;;28.71;48.05;101183.58;104809;1273;66062;-64
2023/09/17 08:34:45;;;;;;;6.20;4.40;;;;;;;28.76;47.46;101179.41;104619;1271;73076;-63
2023/09/17 08:37:12;;;;;;;6.40;5.10;;;;;;;28.88;48.10;101172.70;104936;1272;61311;-66
2023/09/17 08:39:39;;;;;;;5.90;4.80;;;;;;;29.04;47.47;101171.61;104310;1267;61159;-63
2023/09/17 08:42:06;;;;;;;5.50;4.30;;;;;;;29.13;45.60;101169.09;104288;1267;74631;-64
2023/09/17 08:44:33;;;;;;;5.50;4.30;;;;;;;28.97;45.82;101167.41;103926;1267;67856;-65
2023/09/17 08:47:00;;;;;;;5.10;4.10;;;;;;;28.87;44.70;101166.73;104634;1268;72532;-69
2023/09/17 08:49:28;;;;;;;7.40;4.20;;;;;;;28.74;45.36;101170.68;104937;1267;61201;-63
2023/09/17 08:51:58;;;;;;;5.00;4.20;;;;;;;28.58;45.58;101165.40;104520;1273;61264;-63
2023/09/17 08:54:28;;;;;;;4.80;4.00;;;;;;;28.50;46.08;101163.29;104625;1267;74724;-63
2023/09/17 08:56:55;;;;;;;4.90;4.30;;;;;;;28.55;46.68;101161.52;104730;1268;67336;-66
2023/09/17 08:59:26;;;;;;;4.50;3.80;;;;;;;28.58;46.13;101160.73;104842;1270;71561;-64
2023/09/17 09:01:53;;;;;;;5.40;4.50;;;;;;;28.57;47.82;101157.85;104459;1270;61451;-63
2023/09/17 09:04:22;;;;;;;5.70;4.20;;;;;;;28.62;46.45;101156.41;104222;1272;61301;-65
2023/09/17 09:06:49;;;;;;;11.20;4.70;;;;;;;28.47;44.42;101160.08;104625;1268;73789;-66
2023/09/17 09:09:16;;;;;;;6.70;3.80;;;;;;;28.21;44.73;101161.00;104323;1267;67852;-62
2023/09/17 09:11:43;;;;;;;5.40;4.20;;;;;;;28.10;45.65;101162.09;104353;1272;71321;-65
2023/09/17 09:14:10;;;;;;;5.10;4.10;;;;;;;27.96;44.80;101158.16;103852;1267;61295;-64
2023/09/17 09:16:37;;;;;;;6.80;4.30;;;;;;;27.78;45.79;101159.29;104740;1267;61253;-63
2023/09/17 09:19:05;;;;;;;4.50;3.80;;;;;;;27.81;47.65;101156.31;105152;1267;73501;-65
2023/09/17 09:21:32;;;;;;;5.60;4.30;;;;;;;28.07;48.66;101154.12;104897;1271;66172;-65
2023/09/17 09:23:59;;;;;;;5.00;4.00;;;;;;;28.35;46.12;101151.36;104553;1267;70802;-63
2023/09/17 09:26:33;;;;;;;5.10;4.00;;;;;;;28.49;45.93;101152.13;104632;1273;60244;-62
2023/09/17 09:29:01;;;;;;;4.60;4.00;;;;;;;28.59;46.88;101151.19;104836;1272;61441;-62
2023/09/17 09:31:29;;;;;;;6.60;3.90;;;;;;;28.73;44.65;101152.50;104903;1267;74705;-65
2023/09/17 09:33:59;;;;;;;5.20;4.20;;;;;;;28.73;43.37;101150.67;104436;1271;65978;-63
2023/09/17 09:36:32;;;;;;;4.70;3.70;;;;;;;28.60;43.30;101153.11;104787;1267;71581;-65
2023/09/17 09:39:00;;;;;;;6.40;4.40;;;;;;;28.44;43.16;101152.43;104863;1267;61364;-64
2023/09/17 09:41:29;;;;;;;7.10;4.70;;;;;;;28.30;43.24;101151.86;104890;1267;61303;-65
2023/09/17 09:43:56;;;;;;;5.50;4.10;;;;;;;28.16;43.74;101151.48;104449;1267;74759;-62
2023/09/17 09:46:28;;;;;;;6.90;3.90;;;;;;;28.11;44.80;101153.83;104605;1268;68102;-61
2023/09/17 09:49:01;;;;;;;5.20;3.90;;;;;;;28.14;43.93;101149.68;104557;1273;71486;-63
2023/09/17 09:51:31;;;;;;;4.60;4.10;;;;;;;28.21;44.41;101151.89;104818;1267;61250;-65
2023/09/17 09:53:59;;;;;;;4.80;3.80;;;;;;;28.23;42.60;101145.16;104838;1267;61158;-65
2023/09/17 09:56:27;;;;;;;4.70;4.10;;;;;;;28.21;43.31;101143.30;104411;1267;75608;-63
2023/09/17 09:58:55;;;;;;;4.80;4.30;;;;;;;28.12;43.84;101139.57;104554;1273;66160;-63
2023/09/17 10:01:22;;;;;;;4.50;4.10;;;;;;;28.22;46.10;101133.75;104625;1267;72697;-64
2023/09/17 10:03:50;;;;;;;4.60;3.90;;;;;;;28.52;44.55;101139.45;104577;1270;61254;-65
2023/09/17 10:06:19;;;;;;;4.50;4.10;;;;;;;28.56;43.35;101138.86;104550;1271;61253;-66
2023/09/17 10:08:46;;;;;;;5.10;4.00;;;;;;;28.50;44.06;101140.27;104519;1268;73933;-62
2023/09/17 10:11:14;;;;;;;4.70;3.90;;;;;;;28.57;43.53;101135.59;104630;1270;66300;-63
2023/09/17 10:13:42;;;;;;;5.80;3.60;;;;;;;28.68;41.96;101135.85;104594;1271;71544;-62
2023/09/17 10:16:09;;;;;;;5.30;4.40;;;;;;;28.46;41.46;101142.48;104685;1272;61300;-63
2023/09/17 10:18:36;;;;;;;4.90;4.30;;;;;;;27.95;43.23;101143.63;104966;1267;61176;-61
2023/09/17 10:21:03;;;;;;;5.40;4.10;;;;;;;27.50;43.46;101140.37;104640;1270;74739;-63
2023/09/17 10:23:31;;;;;;;5.30;4.20;;;;;;;27.09;45.84;101141.95;104724;1270;65871;-62
2023/09/17 10:25:59;;;;;;;6.90;4.00;;;;;;;26.90;46.91;101140.15;105148;1267;71262;-64
2023/09/17 10:28:26;;;;;;;6.10;5.20;;;;;;;26.78;48.34;101136.27;104820;1271;61243;-62
2023/09/17 10:30:54;;;;;;;7.70;5.80;;;;;;;26.73;50.58;101135.95;104896;1267;61287;-63
2023/09/17 10:33:22;;;;;;;6.00;4.30;;;;;;;26.84;48.63;101134.75;104893;1270;73692;-62
2023/09/17 10:35:49;;;;;;;5.70;4.70;;;;;;;26.96;47.54;101132.55;105248;1270;67174;-63
2023/09/17 10:38:16;;;;;;;5.10;4.40;;;;;;;27.08;48.25;101126.90;104758;1267;73066;-59
2023/09/17 10:40:43;;;;;;;5.10;4.40;;;;;;;27.27;46.71;101123.95;104647;1268;61282;-61
2023/09/17 10:43:10;;;;;;;6.40;4.20;;;;;;;27.42;47.05;101122.67;104558;1268;61492;-62
2023/09/17 10:45:37;;;;;;;6.40;4.70;;;;;;;27.50;44.20;101125.43;105080;1267;73588;-61
2023/09/17 10:48:05;;;;;;;4.40;3.60;;;;;;;27.57;44.63;101123.14;104690;1270;67891;-61
2023/09/17 10:50:34;;;;;;;5.40;4.10;;;;;;;27.72;44.75;101124.73;104781;1267;72460;-61
2023/09/17 10:53:01;;;;;;;5.60;4.30;;;;;;;27.80;44.54;101118.43;105000;1267;61251;-64
2023/09/17 10:55:30;;;;;;;5.50;4.20;;;;;;;27.80;43.53;101127.06;104758;1267;61263;-60
2023/09/17 10:58:13;;;;;;;4.40;3.50;;;;;;;27.71;43.39;101122.75;104896;1267;75406;-64
2023/09/17 11:00:42;;;;;;;4.50;3.70;;;;;;;27.67;42.18;101118.27;104600;1267;66569;-62
2023/09/17 11:03:11;;;;;;;4.60;3.80;;;;;;;27.71;42.52;101118.63;104520;1271;72286;-63
2023/09/17 11:05:38;;;;;;;5.80;4.30;;;;;;;27.77;41.86;101117.55;105059;1267;61281;-66
2023/09/17 11:08:05;;;;;;;5.10;4.20;;;;;;;27.82;41.95;101112.05;104610;1270;61121;-63
2023/09/17 11:10:33;;;;;;;4.40;3.80;;;;;;;27.91;42.05;101111.35;104546;1267;73587;-59